createdAt,value
2019-03-19T00:01:53.743Z,13.97
2019-03-19T00:04:20.363Z,14.53
2019-03-19T00:06:46.907Z,14.53
2019-03-19T00:09:13.271Z,14.53
2019-03-19T00:11:39.723Z,13.83
2019-03-19T00:14:06.170Z,16.10
2019-03-19T00:16:32.564Z,14.53
2019-03-19T00:18:58.913Z,13.20
2019-03-19T00:21:25.279Z,17.47
2019-03-19T00:23:51.723Z,15.80
2019-03-19T00:26:18.191Z,17.00
2019-03-19T00:28:44.668Z,14.47
2019-03-19T00:31:11.119Z,14.20
2019-03-19T00:33:37.463Z,14.47
2019-03-19T00:36:03.935Z,14.93
2019-03-19T00:38:30.391Z,13.20
2019-03-19T00:40:56.764Z,15.03
2019-03-19T00:43:23.105Z,14.43
2019-03-19T00:45:49.571Z,16.30
2019-03-19T00:48:16.022Z,14.27
2019-03-19T00:50:42.415Z,16.77
2019-03-19T00:53:08.787Z,14.47
2019-03-19T00:55:40.562Z,16.73
2019-03-19T00:58:03.615Z,16.43
2019-03-19T01:00:30.063Z,16.87
2019-03-19T01:02:56.431Z,14.53
2019-03-19T01:05:23.046Z,14.87
2019-03-19T01:07:49.427Z,15.90
2019-03-19T01:10:17.351Z,15.93
2019-03-19T01:12:44.253Z,19.53
2019-03-19T01:15:11.213Z,17.07
2019-03-19T01:17:37.786Z,22.67
2019-03-19T01:20:05.833Z,17.90
2019-03-19T01:22:32.298Z,20.17
2019-03-19T01:24:58.842Z,22.70
2019-03-19T01:27:25.215Z,17.97
2019-03-19T01:29:51.667Z,17.63
2019-03-19T01:32:18.140Z,13.53
2019-03-19T01:34:44.591Z,18.47
2019-03-19T01:37:10.979Z,19.63
2019-03-19T01:39:37.524Z,18.67
2019-03-19T01:42:03.890Z,16.80
2019-03-19T01:44:30.444Z,18.07
2019-03-19T01:46:56.935Z,17.63
2019-03-19T01:49:23.371Z,19.60
2019-03-19T01:51:49.726Z,16.63
2019-03-19T01:54:16.127Z,18.63
2019-03-19T01:56:42.719Z,19.70
2019-03-19T01:59:09.293Z,19.70
2019-03-19T02:01:35.631Z,20.87
2019-03-19T02:04:02.233Z,19.27
2019-03-19T02:06:28.832Z,22.60
2019-03-19T02:08:55.295Z,22.97
2019-03-19T02:11:21.754Z,24.70
2019-03-19T02:13:48.215Z,24.37
2019-03-19T02:16:14.761Z,20.97
2019-03-19T02:18:41.137Z,20.87
2019-03-19T02:21:07.593Z,24.43
2019-03-19T02:23:33.973Z,18.90
2019-03-19T02:26:00.324Z,22.37
2019-03-19T02:28:26.720Z,21.77
2019-03-19T02:30:53.111Z,19.33
2019-03-19T02:33:19.567Z,21.73
2019-03-19T02:35:46.311Z,23.23
2019-03-19T02:38:12.801Z,23.20
2019-03-19T02:40:39.247Z,19.73
2019-03-19T02:43:05.802Z,22.50
2019-03-19T02:45:32.226Z,19.07
2019-03-19T02:47:58.673Z,20.13
2019-03-19T02:50:25.045Z,20.60
2019-03-19T02:52:51.417Z,23.30
2019-03-19T02:55:17.876Z,27.53
2019-03-19T02:57:44.387Z,29.00
2019-03-19T03:00:11.833Z,27.43
2019-03-19T03:02:38.294Z,29.67
2019-03-19T03:05:06.808Z,29.50
2019-03-19T03:07:33.155Z,27.83
2019-03-19T03:09:59.537Z,30.83
2019-03-19T03:12:26.014Z,27.70
2019-03-19T03:14:52.414Z,33.33
2019-03-19T03:17:18.976Z,34.77
2019-03-19T03:19:45.453Z,31.77
2019-03-19T03:22:11.913Z,33.27
2019-03-19T03:24:38.389Z,29.70
2019-03-19T03:27:04.842Z,29.87
2019-03-19T03:29:31.217Z,21.87
2019-03-19T03:31:57.728Z,23.70
2019-03-19T03:34:24.089Z,24.40
2019-03-19T03:36:50.659Z,25.13
2019-03-19T03:39:17.149Z,24.10
2019-03-19T03:41:43.533Z,22.03
2019-03-19T03:44:09.989Z,22.80
2019-03-19T03:46:36.469Z,21.73
2019-03-19T03:49:03.125Z,21.30
2019-03-19T03:51:29.499Z,20.13
2019-03-19T03:53:55.938Z,23.50
2019-03-19T03:56:22.421Z,22.37
2019-03-19T03:58:59.816Z,24.57
2019-03-19T04:01:17.537Z,22.53
2019-03-19T04:03:43.985Z,20.00
2019-03-19T04:06:10.379Z,19.20
2019-03-19T04:08:36.839Z,18.17
2019-03-19T04:11:03.482Z,21.77
2019-03-19T04:13:29.857Z,19.60
2019-03-19T04:15:56.420Z,19.80
2019-03-19T04:18:22.777Z,21.23
2019-03-19T04:20:49.355Z,23.60
2019-03-19T04:23:15.740Z,21.67
2019-03-19T04:25:42.227Z,22.67
2019-03-19T04:28:08.686Z,26.10
2019-03-19T04:30:35.240Z,19.87
2019-03-19T04:33:01.708Z,21.83
2019-03-19T04:35:28.304Z,24.03
2019-03-19T04:37:54.776Z,21.00
2019-03-19T04:40:21.324Z,23.50
2019-03-19T04:42:47.701Z,22.70
2019-03-19T04:45:14.664Z,27.90
2019-03-19T04:47:41.230Z,29.33
2019-03-19T04:50:09.484Z,24.73
2019-03-19T04:52:35.868Z,27.07
2019-03-19T04:55:03.528Z,23.00
2019-03-19T04:57:29.919Z,26.87
2019-03-19T04:59:58.896Z,21.67
2019-03-19T05:02:24.751Z,20.13
2019-03-19T05:04:51.237Z,27.10
2019-03-19T05:07:17.622Z,26.57
2019-03-19T05:09:44.114Z,23.93
2019-03-19T05:12:10.669Z,25.60
2019-03-19T05:14:37.011Z,22.47
2019-03-19T05:17:03.483Z,21.03
2019-03-19T05:19:29.837Z,24.93
2019-03-19T05:21:56.393Z,23.03
2019-03-19T05:24:22.868Z,24.10
2019-03-19T05:26:49.340Z,22.53
2019-03-19T05:29:15.925Z,25.23
2019-03-19T05:31:42.275Z,27.40
2019-03-19T05:34:08.761Z,23.70
2019-03-19T05:36:35.210Z,22.53
2019-03-19T05:39:01.708Z,22.10
2019-03-19T05:41:28.060Z,22.87
2019-03-19T05:43:54.452Z,26.00
2019-03-19T05:46:20.810Z,30.93
2019-03-19T05:48:47.204Z,31.17
2019-03-19T05:51:13.761Z,28.47
2019-03-19T05:53:40.327Z,28.73
2019-03-19T05:56:06.766Z,31.00
2019-03-19T05:58:34.084Z,31.90
2019-03-19T06:01:00.527Z,31.37
2019-03-19T06:03:26.996Z,31.30
2019-03-19T06:05:53.385Z,25.97
2019-03-19T06:08:19.951Z,27.57
2019-03-19T06:10:46.401Z,31.47
2019-03-19T06:13:12.864Z,29.10
2019-03-19T06:15:39.331Z,28.13
2019-03-19T06:18:05.800Z,22.17
2019-03-19T06:20:32.248Z,24.77
2019-03-19T06:22:58.735Z,26.70
2019-03-19T06:25:25.215Z,25.13
2019-03-19T06:27:59.953Z,25.33
2019-03-19T06:30:20.520Z,31.63
2019-03-19T06:32:46.971Z,22.80
2019-03-19T06:35:13.957Z,25.93
2019-03-19T06:37:40.430Z,25.53
2019-03-19T06:40:08.800Z,23.77
2019-03-19T06:42:35.159Z,26.37
2019-03-19T06:45:01.624Z,25.83
2019-03-19T06:47:28.100Z,25.90
2019-03-19T06:49:54.437Z,25.63
2019-03-19T06:52:20.889Z,23.80
2019-03-19T06:54:47.264Z,23.73
2019-03-19T06:57:13.719Z,27.53
2019-03-19T06:59:41.018Z,24.37
2019-03-19T07:02:07.598Z,25.60
2019-03-19T07:04:34.120Z,25.13
2019-03-19T07:07:00.675Z,23.73
2019-03-19T07:09:27.123Z,22.60
2019-03-19T07:11:53.500Z,24.27
2019-03-19T07:14:19.956Z,22.77
2019-03-19T07:16:46.564Z,21.97
2019-03-19T07:19:12.919Z,27.23
2019-03-19T07:21:39.380Z,22.63
2019-03-19T07:24:05.770Z,20.93
2019-03-19T07:26:32.229Z,25.43
2019-03-19T07:28:58.667Z,22.40
2019-03-19T07:31:30.814Z,21.73
2019-03-19T07:33:53.371Z,24.07
2019-03-19T07:36:19.735Z,25.47
2019-03-19T07:38:46.085Z,25.30
2019-03-19T07:41:12.464Z,26.13
2019-03-19T07:43:38.853Z,23.60
2019-03-19T07:46:05.299Z,23.23
2019-03-19T07:48:31.856Z,25.87
2019-03-19T07:50:58.220Z,24.03
2019-03-19T07:53:24.781Z,23.93
2019-03-19T07:55:53.389Z,23.60
2019-03-19T07:58:19.623Z,23.40
2019-03-19T08:00:45.979Z,22.43
2019-03-19T08:03:16.427Z,20.50
2019-03-19T08:05:40.611Z,19.50
2019-03-19T08:08:07.007Z,23.00
2019-03-19T08:10:33.551Z,19.37
2019-03-19T08:12:59.933Z,21.60
2019-03-19T08:15:26.300Z,25.50
2019-03-19T08:17:52.676Z,20.50
2019-03-19T08:20:19.109Z,18.10
2019-03-19T08:22:45.578Z,22.33
2019-03-19T08:25:12.365Z,19.40
2019-03-19T08:27:38.822Z,17.97
2019-03-19T08:30:07.069Z,20.77
2019-03-19T08:32:33.546Z,18.60
2019-03-19T08:35:00.001Z,15.27
2019-03-19T08:37:26.475Z,13.70
2019-03-19T08:39:53.026Z,10.03
2019-03-19T08:42:19.421Z,10.10
2019-03-19T08:44:45.869Z,16.47
2019-03-19T08:47:12.338Z,14.40
2019-03-19T08:49:38.799Z,11.63
2019-03-19T08:52:05.367Z,8.40
2019-03-19T08:54:32.591Z,13.33
2019-03-19T08:56:59.079Z,10.40
2019-03-19T08:59:25.535Z,14.97
2019-03-19T09:01:52.017Z,10.67
2019-03-19T09:04:18.460Z,9.10
2019-03-19T09:06:44.833Z,11.53
2019-03-19T09:09:11.307Z,10.60
2019-03-19T09:11:37.695Z,10.30
2019-03-19T09:14:04.173Z,10.70
2019-03-19T09:16:30.623Z,9.47
2019-03-19T09:18:57.083Z,11.07
2019-03-19T09:21:23.438Z,7.90
2019-03-19T09:23:49.906Z,12.73
2019-03-19T09:26:16.455Z,7.00
2019-03-19T09:28:42.839Z,9.77
2019-03-19T09:31:09.213Z,6.13
2019-03-19T09:33:35.592Z,8.37
2019-03-19T09:36:01.945Z,6.17
2019-03-19T09:38:28.431Z,8.80
2019-03-19T09:40:56.691Z,9.27
2019-03-19T09:43:23.059Z,4.97
2019-03-19T09:45:49.435Z,8.60
2019-03-19T09:48:15.902Z,12.40
2019-03-19T09:50:42.358Z,11.47
2019-03-19T09:53:08.840Z,8.27
2019-03-19T09:55:35.287Z,7.93
2019-03-19T09:58:01.729Z,8.93
2019-03-19T10:00:28.296Z,7.63
2019-03-19T10:02:54.743Z,5.03
2019-03-19T10:05:21.159Z,5.90
2019-03-19T10:07:47.715Z,4.80
2019-03-19T10:10:16.100Z,4.27
2019-03-19T10:12:42.555Z,6.47
2019-03-19T10:15:09.250Z,5.73
2019-03-19T10:17:35.804Z,6.20
2019-03-19T10:20:03.883Z,9.30
2019-03-19T10:22:30.439Z,6.42
2019-03-19T10:24:56.918Z,7.37
2019-03-19T10:27:23.269Z,5.50
2019-03-19T10:29:49.635Z,4.27
2019-03-19T10:32:16.027Z,4.90
2019-03-19T10:34:42.383Z,5.47
2019-03-19T10:37:08.732Z,4.50
2019-03-19T10:39:35.210Z,7.03
2019-03-19T10:42:01.771Z,4.70
2019-03-19T10:44:28.159Z,4.23
2019-03-19T10:46:54.595Z,11.50
2019-03-19T10:49:21.072Z,5.50
2019-03-19T10:51:47.542Z,5.97
2019-03-19T10:54:13.900Z,8.63
2019-03-19T10:56:40.272Z,8.33
2019-03-19T10:59:06.743Z,4.90
2019-03-19T11:01:33.127Z,6.00
2019-03-19T11:03:59.704Z,8.37
2019-03-19T11:06:26.069Z,9.23
2019-03-19T11:08:52.419Z,7.00
2019-03-19T11:11:18.824Z,5.67
2019-03-19T11:13:45.439Z,6.10
2019-03-19T11:16:12.015Z,8.87
2019-03-19T11:18:38.559Z,9.27
2019-03-19T11:21:08.361Z,5.50
2019-03-19T11:23:34.713Z,7.97
2019-03-19T11:26:01.201Z,8.33
2019-03-19T11:28:27.556Z,6.07
2019-03-19T11:30:54.128Z,9.77
2019-03-19T11:33:20.478Z,4.57
2019-03-19T11:35:47.050Z,6.50
2019-03-19T11:38:13.514Z,8.07
2019-03-19T11:40:39.995Z,9.07
2019-03-19T11:43:06.444Z,7.83
2019-03-19T11:45:33.032Z,4.27
2019-03-19T11:47:59.464Z,5.72
2019-03-19T11:50:26.651Z,7.00
2019-03-19T11:52:53.199Z,5.65
2019-03-19T11:55:19.876Z,7.53
2019-03-19T11:57:46.332Z,7.90
2019-03-19T12:00:14.727Z,7.10
2019-03-19T12:02:41.183Z,4.17
2019-03-19T12:05:07.815Z,7.00
2019-03-19T12:07:34.326Z,4.30
2019-03-19T12:10:00.776Z,5.22
2019-03-19T12:12:27.242Z,5.58
2019-03-19T12:14:53.699Z,5.03
2019-03-19T12:17:20.179Z,5.37
2019-03-19T12:19:46.661Z,4.28
2019-03-19T12:22:13.131Z,2.75
2019-03-19T12:24:39.487Z,3.70
2019-03-19T12:27:05.975Z,6.97
2019-03-19T12:29:32.430Z,4.67
2019-03-19T12:31:58.821Z,4.47
2019-03-19T12:34:25.388Z,6.37
2019-03-19T12:36:52.043Z,5.87
2019-03-19T12:39:18.412Z,3.50
2019-03-19T12:41:44.875Z,4.87
2019-03-19T12:44:11.234Z,5.10
2019-03-19T12:46:37.700Z,4.70
2019-03-19T12:49:04.156Z,10.63
2019-03-19T12:51:30.585Z,7.67
2019-03-19T12:53:59.552Z,5.43
2019-03-19T12:56:26.131Z,5.47
2019-03-19T12:58:52.488Z,8.10
2019-03-19T13:01:18.992Z,5.93
2019-03-19T13:03:45.528Z,7.50
2019-03-19T13:06:12.030Z,5.70
2019-03-19T13:08:38.667Z,4.62
2019-03-19T13:11:05.174Z,4.12
2019-03-19T13:13:31.649Z,6.05
2019-03-19T13:15:58.115Z,6.75
2019-03-19T13:18:24.496Z,5.45
2019-03-19T13:20:53.401Z,6.78
2019-03-19T13:23:19.450Z,6.70
2019-03-19T13:25:45.919Z,5.53
2019-03-19T13:28:12.395Z,5.87
2019-03-19T13:30:44.859Z,6.65
2019-03-19T13:33:07.340Z,4.92
2019-03-19T13:35:33.788Z,5.40
2019-03-19T13:38:00.157Z,3.77
2019-03-19T13:40:26.611Z,5.90
2019-03-19T13:42:52.991Z,4.90
2019-03-19T13:45:19.844Z,4.03
2019-03-19T13:47:46.212Z,5.83
2019-03-19T13:50:14.368Z,5.50
2019-03-19T13:52:40.748Z,3.70
2019-03-19T13:55:08.608Z,2.90
2019-03-19T13:57:34.976Z,5.85
2019-03-19T14:00:01.328Z,3.95
2019-03-19T14:02:27.778Z,4.83
2019-03-19T14:04:54.162Z,4.22
2019-03-19T14:07:20.515Z,6.90
2019-03-19T14:09:46.901Z,4.60
2019-03-19T14:12:13.250Z,3.15
2019-03-19T14:14:39.748Z,5.40
2019-03-19T14:17:06.747Z,6.40
2019-03-19T14:19:33.188Z,5.28
2019-03-19T14:22:01.439Z,6.03
2019-03-19T14:24:27.821Z,2.52
2019-03-19T14:26:54.384Z,6.65
2019-03-19T14:29:20.749Z,6.30
2019-03-19T14:31:47.210Z,4.37
2019-03-19T14:34:13.580Z,5.58
2019-03-19T14:36:40.083Z,4.50
2019-03-19T14:39:06.732Z,5.13
2019-03-19T14:41:33.116Z,5.70
2019-03-19T14:43:59.592Z,9.30
2019-03-19T14:46:25.943Z,3.57
2019-03-19T14:48:52.312Z,3.80
2019-03-19T14:51:18.767Z,2.70
2019-03-19T14:53:45.240Z,7.03
2019-03-19T14:56:11.802Z,3.20
2019-03-19T14:58:38.272Z,4.75
2019-03-19T15:01:04.736Z,5.03
2019-03-19T15:03:31.108Z,3.75
2019-03-19T15:05:57.608Z,4.22
2019-03-19T15:08:25.512Z,2.83
2019-03-19T15:10:52.128Z,5.33
2019-03-19T15:13:18.610Z,5.17
2019-03-19T15:15:45.056Z,2.83
2019-03-19T15:18:11.641Z,4.65
2019-03-19T15:20:38.192Z,3.90
2019-03-19T15:23:04.659Z,4.80
2019-03-19T15:25:31.122Z,3.87
2019-03-19T15:27:57.513Z,2.55
2019-03-19T15:30:24.083Z,6.72
2019-03-19T15:32:50.544Z,5.30
2019-03-19T15:35:17.008Z,4.80
2019-03-19T15:37:45.368Z,4.13
2019-03-19T15:40:12.640Z,2.90
2019-03-19T15:42:39.099Z,3.13
2019-03-19T15:45:09.463Z,4.10
2019-03-19T15:47:35.920Z,5.37
2019-03-19T15:50:03.888Z,5.03
2019-03-19T15:52:30.344Z,4.33
2019-03-19T15:54:56.927Z,1.20
2019-03-19T15:57:23.379Z,3.93
2019-03-19T15:59:49.991Z,2.93
2019-03-19T16:02:16.381Z,1.23
2019-03-19T16:04:43.035Z,5.60
2019-03-19T16:07:09.561Z,5.35
2019-03-19T16:09:35.921Z,2.80
2019-03-19T16:12:02.591Z,3.25
2019-03-19T16:14:28.953Z,4.55
2019-03-19T16:16:55.324Z,3.17
2019-03-19T16:19:21.714Z,3.25
2019-03-19T16:21:48.212Z,2.85
2019-03-19T16:24:14.556Z,4.10
2019-03-19T16:26:41.029Z,3.70
2019-03-19T16:29:07.484Z,5.70
2019-03-19T16:31:33.867Z,4.27
2019-03-19T16:34:00.232Z,5.75
2019-03-19T16:36:26.611Z,3.43
2019-03-19T16:38:53.067Z,5.40
2019-03-19T16:41:19.431Z,4.73
2019-03-19T16:43:45.888Z,2.70
2019-03-19T16:46:12.252Z,4.17
2019-03-19T16:48:38.637Z,3.97
2019-03-19T16:51:05.097Z,2.67
2019-03-19T16:53:31.443Z,4.00
2019-03-19T16:55:57.955Z,4.87
2019-03-19T16:58:24.299Z,7.00
2019-03-19T17:00:50.748Z,5.03
2019-03-19T17:03:17.128Z,7.93
2019-03-19T17:05:43.516Z,2.13
2019-03-19T17:08:10.030Z,4.43
2019-03-19T17:10:36.479Z,3.80
2019-03-19T17:13:03.260Z,6.07
2019-03-19T17:15:29.719Z,3.47
2019-03-19T17:17:56.179Z,3.60
2019-03-19T17:20:22.650Z,3.53
2019-03-19T17:22:49.056Z,2.93
2019-03-19T17:25:17.203Z,2.73
2019-03-19T17:27:43.863Z,3.90
2019-03-19T17:30:12.299Z,3.60
2019-03-19T17:32:38.698Z,5.10
2019-03-19T17:35:05.226Z,6.50
2019-03-19T17:37:31.638Z,4.90
2019-03-19T17:39:58.106Z,2.97
2019-03-19T17:42:24.701Z,4.10
2019-03-19T17:44:51.215Z,5.43
2019-03-19T17:47:17.735Z,6.23
2019-03-19T17:49:44.189Z,4.57
2019-03-19T17:52:10.571Z,4.83
2019-03-19T17:54:37.028Z,5.50
2019-03-19T17:57:03.417Z,3.40
2019-03-19T17:59:31.678Z,5.97
2019-03-19T18:01:58.102Z,7.20
2019-03-19T18:04:24.587Z,4.73
2019-03-19T18:06:51.095Z,2.67
2019-03-19T18:09:17.570Z,4.27
2019-03-19T18:11:44.119Z,2.80
2019-03-19T18:14:10.632Z,4.93
2019-03-19T18:16:37.066Z,5.20
2019-03-19T18:19:03.450Z,4.90
2019-03-19T18:21:29.878Z,4.10
2019-03-19T18:23:56.410Z,4.70
2019-03-19T18:26:22.765Z,7.47
2019-03-19T18:28:49.380Z,7.50
2019-03-19T18:31:15.761Z,6.93
2019-03-19T18:33:42.221Z,4.33
2019-03-19T18:36:08.675Z,5.83
2019-03-19T18:38:35.079Z,5.27
2019-03-19T18:41:01.540Z,4.70
2019-03-19T18:43:28.196Z,8.13
2019-03-19T18:45:57.009Z,4.93
2019-03-19T18:48:22.963Z,3.40
2019-03-19T18:50:49.414Z,4.73
2019-03-19T18:53:15.771Z,8.10
2019-03-19T18:55:42.289Z,6.73
2019-03-19T18:58:08.627Z,7.17
2019-03-19T19:00:35.115Z,10.07
2019-03-19T19:03:01.524Z,6.77
2019-03-19T19:05:27.883Z,8.77
2019-03-19T19:07:54.321Z,7.47
2019-03-19T19:10:21.595Z,12.33
2019-03-19T19:12:48.431Z,9.90
2019-03-19T19:15:16.400Z,5.60
2019-03-19T19:17:42.843Z,5.17
2019-03-19T19:20:12.791Z,4.63
2019-03-19T19:22:39.350Z,3.93
2019-03-19T19:25:07.558Z,6.97
2019-03-19T19:27:33.920Z,6.20
2019-03-19T19:30:00.349Z,11.33
2019-03-19T19:32:26.856Z,4.90
2019-03-19T19:34:55.920Z,4.47
2019-03-19T19:37:22.317Z,3.83
2019-03-19T19:39:48.902Z,5.17
2019-03-19T19:42:15.255Z,5.83
2019-03-19T19:44:41.644Z,10.90
2019-03-19T19:47:08.122Z,8.60
2019-03-19T19:49:34.482Z,8.90
2019-03-19T19:52:00.955Z,8.17
2019-03-19T19:54:27.502Z,8.67
2019-03-19T19:56:54.154Z,11.73
2019-03-19T19:59:20.607Z,11.67
2019-03-19T20:01:47.068Z,8.20
2019-03-19T20:04:13.534Z,7.57
2019-03-19T20:06:39.912Z,8.23
2019-03-19T20:09:06.682Z,7.40
2019-03-19T20:11:33.451Z,7.50
2019-03-19T20:14:00.117Z,3.53
2019-03-19T20:16:26.571Z,8.27
2019-03-19T20:18:53.041Z,8.70
2019-03-19T20:21:19.512Z,9.73
2019-03-19T20:23:46.096Z,11.03
2019-03-19T20:26:12.506Z,9.00
2019-03-19T20:28:38.890Z,8.20
2019-03-19T20:31:05.276Z,11.03
2019-03-19T20:33:31.738Z,13.07
2019-03-19T20:35:58.453Z,9.47
2019-03-19T20:38:24.923Z,9.03
2019-03-19T20:40:51.416Z,8.17
2019-03-19T20:43:17.927Z,10.30
2019-03-19T20:45:44.329Z,8.50
2019-03-19T20:48:11.596Z,10.90
2019-03-19T20:50:38.835Z,11.57
2019-03-19T20:53:05.256Z,11.93
2019-03-19T20:55:31.724Z,15.33
2019-03-19T20:57:58.309Z,15.13
2019-03-19T21:00:24.651Z,11.17
2019-03-19T21:02:51.223Z,10.53
2019-03-19T21:05:17.590Z,13.17
2019-03-19T21:07:44.123Z,11.80
2019-03-19T21:10:12.010Z,8.97
2019-03-19T21:12:38.582Z,10.03
2019-03-19T21:15:06.648Z,6.47
2019-03-19T21:17:33.144Z,10.87
2019-03-19T21:19:59.713Z,9.97
2019-03-19T21:22:26.107Z,7.73
2019-03-19T21:24:52.467Z,9.90
2019-03-19T21:27:18.936Z,7.07
2019-03-19T21:29:45.312Z,15.63
2019-03-19T21:32:11.771Z,8.83
2019-03-19T21:34:38.171Z,10.57
2019-03-19T21:37:04.631Z,10.20
2019-03-19T21:39:31.099Z,7.23
2019-03-19T21:41:57.556Z,12.20
2019-03-19T21:44:24.051Z,12.83
2019-03-19T21:46:50.590Z,11.63
2019-03-19T21:49:17.160Z,14.40
2019-03-19T21:51:43.544Z,13.73
2019-03-19T21:54:10.019Z,9.80
2019-03-19T21:56:36.472Z,11.83
2019-03-19T21:59:03.066Z,10.47
2019-03-19T22:01:29.503Z,13.57
2019-03-19T22:04:03.055Z,9.20
2019-03-19T22:06:24.384Z,9.13
2019-03-19T22:08:50.783Z,10.13
2019-03-19T22:11:17.249Z,7.87
2019-03-19T22:13:43.714Z,14.33
2019-03-19T22:16:10.066Z,8.53
2019-03-19T22:18:36.539Z,11.37
2019-03-19T22:21:02.998Z,10.57
2019-03-19T22:23:29.458Z,10.33
2019-03-19T22:25:55.908Z,7.07
2019-03-19T22:28:22.282Z,12.90
2019-03-19T22:30:48.751Z,10.07
2019-03-19T22:33:15.137Z,13.03
2019-03-19T22:35:41.613Z,10.93
2019-03-19T22:38:08.067Z,12.80
2019-03-19T22:40:34.551Z,8.57
2019-03-19T22:43:01.002Z,10.50
2019-03-19T22:45:27.385Z,9.33
2019-03-19T22:47:53.850Z,8.10
2019-03-19T22:50:20.315Z,10.43
2019-03-19T22:52:46.868Z,9.70
2019-03-19T22:55:13.739Z,7.17
2019-03-19T22:57:40.408Z,9.43
2019-03-19T23:00:08.489Z,12.73
2019-03-19T23:02:34.874Z,8.87
2019-03-19T23:05:01.348Z,11.07
2019-03-19T23:07:27.831Z,11.40
2019-03-19T23:09:54.324Z,9.47
2019-03-19T23:12:20.769Z,14.00
2019-03-19T23:14:47.161Z,6.97
2019-03-19T23:17:13.622Z,8.93
2019-03-19T23:19:40.098Z,12.53
2019-03-19T23:22:06.556Z,9.10
2019-03-19T23:24:33.041Z,12.57
2019-03-19T23:26:59.592Z,8.17
2019-03-19T23:29:26.068Z,8.63
2019-03-19T23:31:52.420Z,9.70
2019-03-19T23:34:18.815Z,10.97
2019-03-19T23:36:45.294Z,9.83
2019-03-19T23:39:11.827Z,10.20
2019-03-19T23:41:38.310Z,9.47
2019-03-19T23:44:04.808Z,11.13
2019-03-19T23:46:31.294Z,14.23
2019-03-19T23:48:57.761Z,9.30
2019-03-19T23:51:24.128Z,9.90
2019-03-19T23:53:50.687Z,11.77
2019-03-19T23:56:17.187Z,12.60
2019-03-19T23:58:43.631Z,9.83
